Flight Track Log - Related Links

Times and Time Zones

All times are in EDT time to prevent confusion due to time zone crossing. See the CAV534 flight status page for this flight to view local times or setup timezone preferences in your user account.

Time Position Orientation Groundspeed Altitude Reporting Facility
EDT Latitude Longitude Course Direction KTS MPH feet Rate Location/Type
Sun 04:55:21 PM 58.2333 -94.4833 193° South 380 437 23,200  Level Winnipeg Center
Sun 04:56:00 PM 57.9299 -94.4143 192° South  Level FlightAware Approximate
Sun 04:56:21 PM 58.1167 -94.5500 197° South 360 414 25,400  Level Winnipeg Center
Sun 04:57:00 PM 57.8401 -94.4507 192° South  Level FlightAware Approximate
Sun 04:57:21 PM 58.0333 -94.6000 198° South 350 403 27,800  Level Winnipeg Center
Sun 04:58:00 PM 57.7502 -94.4866 192° South  Level FlightAware Approximate
Sun 04:58:21 PM 57.9500 -94.6333 192° South 340 391 29,200  Level Winnipeg Center
Sun 04:59:00 PM 57.6605 -94.5235 193° South  Level FlightAware Approximate
Sun 04:59:21 PM 57.8500 -94.6667 190° South 330 380 30,300  Level Winnipeg Center
Sun 05:00:00 PM 57.5708 -94.5609 193° South  Level FlightAware Approximate
Sun 05:00:21 PM 57.7667 -94.7000 192° South 340 391 31,400  Level Winnipeg Center
Sun 05:01:00 PM 57.4815 -94.6009 195° South  Level FlightAware Approximate
Sun 05:01:21 PM 57.6667 -94.7333 190° South 330 380 32,300  Level Winnipeg Center
Sun 05:02:00 PM 57.3926 -94.6437 193° South  Level FlightAware Approximate
Sun 05:02:21 PM 57.5833 -94.7833 198° South 340 391 33,000  Level Winnipeg Center
Sun 05:03:00 PM 57.3031 -94.6820 193° South  Level FlightAware Approximate
Sun 05:03:21 PM 57.4833 -94.8167 190° South 340 391 33,600  Level Winnipeg Center
Sun 05:04:21 PM 57.4000 -94.8500 192° South 340 391 34,100 200 Climbing Winnipeg Center
Sun 05:05:21 PM 57.3000 -94.8833 190° South 350 403 34,000 -50 Descending Winnipeg Center
Sun 05:06:21 PM 57.2000 -94.9167 190° South 350 403 34,000  Level Winnipeg Center
Sun 05:07:21 PM 57.1167 -94.9667 198° South 360 414 34,000  Level Winnipeg Center
Sun 05:08:21 PM 57.0167 -95.0000 190° South 360 414 34,000  Level Winnipeg Center
Sun 05:09:21 PM 56.9333 -95.0333 192° South 360 414 34,000  Level Winnipeg Center
Sun 05:10:21 PM 56.8167 -95.0667 189° South 360 414 34,000  Level Winnipeg Center
Sun 05:11:21 PM 56.7333 -95.1000 192° South 360 414 34,000  Level Winnipeg Center
Sun 05:12:21 PM 56.6333 -95.1333 190° South 360 414 34,000 49 Level Winnipeg Center
Sun 05:13:23 PM 56.5000 -95.1333 180° South 360 414 34,100 49 Climbing Edmonton Center
Sun 05:14:23 PM 56.4000 -95.1667 190° South 360 414 34,100 -50 Level Edmonton Center
Sun 05:15:23 PM 56.3000 -95.2167 196° South 350 403 34,000 -51 Descending Edmonton Center
Sun 05:16:21 PM 56.2333 -95.2833 209° Southwest 360 414 34,000  Level Winnipeg Center
Sun 05:17:21 PM 56.1333 -95.3167 191° South 360 414 34,000 50 Level Winnipeg Center
Sun 05:18:21 PM 56.0500 -95.3500 193° South 360 414 34,100  Climbing Winnipeg Center
Sun 05:19:21 PM 55.9333 -95.3833 189° South 360 414 34,000 -50 Descending Winnipeg Center
Sun 05:20:21 PM 55.8500 -95.4167 193° South 360 414 34,000  Level Winnipeg Center
Sun 05:21:21 PM 55.7500 -95.4500 191° South 360 414 34,000  Level Winnipeg Center
Sun 05:22:21 PM 55.6500 -95.4833 191° South 360 414 34,000  Level Winnipeg Center
Sun 05:23:21 PM 55.5500 -95.5167 191° South 360 414 34,000  Level Winnipeg Center
Sun 05:24:21 PM 55.4500 -95.5500 191° South 360 414 34,000  Level Winnipeg Center
Sun 05:25:21 PM 55.3667 -95.5833 193° South 350 403 34,000 50 Level Winnipeg Center
Sun 05:26:21 PM 55.2500 -95.6167 189° South 350 403 34,100 50 Climbing Winnipeg Center
Sun 05:27:21 PM 55.1667 -95.6500 193° South 350 403 34,100 -50 Level Winnipeg Center
Sun 05:28:21 PM 55.0667 -95.6833 191° South 350 403 34,000  Descending Winnipeg Center
Sun 05:29:21 PM 54.9667 -95.7167 191° South 350 403 34,100  Climbing Winnipeg Center
Sun 05:30:21 PM 54.8833 -95.7333 187° South 350 403 34,000 -209 Descending Winnipeg Center
Sun 06:12:21 PM 51.0000 -96.9333 192° South 330 380 25,100 -247 Descending Winnipeg Center
Sun 06:13:00 PM 51.0039 -96.9080 191° South  Level FlightAware Approximate
Sun 06:13:21 PM 50.9167 -96.9667 194° South 330 380 23,400  Level Winnipeg Center
Sun 06:14:00 PM 50.9138 -96.9358 191° South  Level FlightAware Approximate
Sun 06:14:21 PM 50.8167 -97.0000 192° South 340 391 21,400  Level Winnipeg Center
Sun 06:15:00 PM 50.8238 -96.9635 191° South  Level FlightAware Approximate
Sun 06:15:21 PM 50.7167 -97.0167 186° South 360 414 19,600  Level Winnipeg Center
Sun 06:16:00 PM 50.7337 -96.9911 191° South  Level FlightAware Approximate
Sun 06:16:21 PM 50.6167 -97.0500 192° South 350 403 17,900  Level Winnipeg Center
Sun 06:17:00 PM 50.6437 -97.0186 191° South  Level FlightAware Approximate
Sun 06:17:21 PM 50.5333 -97.0667 187° South 350 403 15,900  Level Winnipeg Center
Sun 06:18:00 PM 50.5535 -97.0456 191° South  Level FlightAware Approximate
Sun 06:18:21 PM 50.4333 -97.0667 180° South 330 380 13,900  Level Winnipeg Center
Sun 06:19:00 PM 50.4631 -97.0667 180° South  Level FlightAware Approximate
Sun 06:19:21 PM 50.3500 -97.0667 180° South 330 380 12,300  Level Winnipeg Center
Sun 06:20:00 PM 50.3725 -97.0879 190° South  Level FlightAware Approximate
Sun 06:20:21 PM 50.2500 -97.0500 174° South 340 391 10,700  Level Winnipeg Center
Sun 06:21:00 PM 50.2821 -97.1125 190° South  Level FlightAware Approximate
Sun 06:21:21 PM 50.1667 -97.0500 180° South 300 345 9,000  Level Winnipeg Center
Sun 06:22:00 PM 50.1923 -97.1415 192° South  Level FlightAware Approximate
Sun 06:22:21 PM 50.0833 -97.0500 180° South 280 322 7,500  Level Winnipeg Center
Sun 06:23:21 PM 50.0167 -97.0500 180° South 290 334 6,200 -1,200 Descending Winnipeg Center
Sun 06:24:21 PM 49.9333 -97.0500 180° South 280 322 5,100 -1,100 Descending Winnipeg Center
Sun 06:25:21 PM 49.8667 -97.0500 180° South 240 276 4,000 -800 Descending Winnipeg Center
Sun 06:26:21 PM 49.8000 -97.0167 162° South 210 242 3,500 -500 Descending Winnipeg Center
Sun 06:27:21 PM 49.7667 -97.0667 224° Southwest 180 207 3,000 -200 Descending Winnipeg Center
Sun 06:28:21 PM 49.8000 -97.1000 327° Northwest 150 173 3,100 -300 Climbing Winnipeg Center
Sun 06:29:21 PM 49.8333 -97.1500 316° Northwest 140 161 2,400 -750 Descending Winnipeg Center
Sun 06:30:21 PM 49.8500 -97.1667 327° Northwest 130 150 1,600 -750 Descending Winnipeg Center
Sun 06:31:21 PM 49.8833 -97.2333 308° West 110 127 900 -700 Descending Winnipeg Center

Login

Don't have an account? Register now (free) for customized features, flight alerts, and more!